Time;durP1;ratioP1;P1;durP2;ratioP2;P2;SDS_P1;SDS_P2;PMS_P1;PMS_P2;Temp;Humidity;BMP_temperature;BMP_pressure;BME280_temperature;BME280_humidity;BME280_pressure;Samples;Min_cycle;Max_cycle;Signal;HPM_P1;HPM_P2
2024/02/02 10:24:20;;;;;;;9.45;4.78;;;;;;;5.63;95.47;98138.03;2091289;28;21061;-63
2024/02/02 10:26:00;;;;;;;8.52;4.13;;;;;;;6.19;93.26;98150.03;2073834;28;20225;-64
2024/02/02 10:27:04;;;;;;;12.80;3.25;;;;;;;7.95;87.33;98155.81;2073641;28;20240;-64
2024/02/02 10:28:15;;;;;;;9.20;4.75;;;;;;;8.20;83.79;98139.94;2073873;28;20232;-64
2024/02/02 10:29:41;;;;;;;6.30;3.05;;;;;;;7.64;84.48;98134.44;2073444;28;20217;-64
2024/02/02 10:31:24;;;;;;;6.72;2.53;;;;;;;7.55;85.63;98137.13;2070309;28;20198;-64
2024/02/02 10:32:40;;;;;;;5.47;2.97;;;;;;;7.54;85.33;98130.22;2057113;28;20206;-64
2024/02/02 10:33:57;;;;;;;5.82;3.03;;;;;;;7.62;84.30;98142.28;2059322;28;21015;-64
2024/02/02 10:35:49;;;;;;;9.02;2.83;;;;;;;7.71;84.04;98130.94;2063860;28;20674;-64
2024/02/02 10:36:50;;;;;;;5.97;2.75;;;;;;;9.56;77.88;98125.06;2062851;28;20289;-64
2024/02/02 10:37:52;;;;;;;4.85;2.60;;;;;;;9.06;76.81;98111.94;2057123;28;20194;-64
2024/02/02 10:39:15;;;;;;;6.85;2.97;;;;;;;8.91;78.71;98120.88;2055819;28;20237;-63
2024/02/02 10:40:38;;;;;;;3.97;2.42;;;;;;;8.34;78.81;98074.72;2057214;28;20886;-64
2024/02/02 10:42:14;;;;;;;4.85;2.25;;;;;;;8.76;80.09;98110.63;2059367;28;20209;-64
2024/02/02 10:43:26;;;;;;;4.68;2.00;;;;;;;8.45;78.82;98104.06;2064870;28;20634;-65
2024/02/02 10:44:39;;;;;;;5.30;2.30;;;;;;;8.37;79.40;98100.72;2063803;28;20277;-64
2024/02/02 10:45:46;;;;;;;8.18;1.95;;;;;;;8.43;78.53;98098.03;2063442;28;20755;-64
2024/02/02 10:46:59;;;;;;;5.85;2.00;;;;;;;8.44;78.15;98093.69;2063382;28;20206;-65
2024/02/02 10:48:29;;;;;;;3.67;1.92;;;;;;;8.34;78.99;98096.41;2062309;28;20197;-65
2024/02/02 10:50:15;;;;;;;3.75;1.90;;;;;;;8.27;79.49;98091.31;2063931;28;20252;-65
2024/02/02 10:51:35;;;;;;;3.00;1.70;;;;;;;8.07;80.18;98083.72;2048092;28;20675;-65
2024/02/02 10:53:00;;;;;;;6.20;1.60;;;;;;;7.76;80.75;98089.28;2046233;28;21181;-65
2024/02/02 10:54:34;;;;;;;2.85;1.40;;;;;;;7.86;80.07;98083.09;2046399;28;20254;-65
2024/02/02 10:55:52;;;;;;;2.90;1.55;;;;;;;7.83;80.29;98084.00;2034707;28;20208;-65
2024/02/02 10:57:15;;;;;;;4.75;2.10;;;;;;;7.93;79.30;98079.53;2047682;28;20794;-65
2024/02/02 10:58:39;;;;;;;3.42;2.10;;;;;;;8.12;79.32;98081.94;2048381;28;20689;-65
2024/02/02 10:59:43;;;;;;;3.00;1.90;;;;;;;9.46;75.17;98073.94;2046446;28;20328;-65
2024/02/02 11:00:58;;;;;;;5.55;2.90;;;;;;;10.32;73.21;98081.03;2049385;28;20805;-65
2024/02/02 11:02:38;;;;;;;6.13;3.30;;;;;;;10.80;70.00;98070.41;2050709;28;20202;-65
2024/02/02 11:03:59;;;;;;;11.38;6.72;;;;;;;10.78;68.67;98067.84;2040067;29;20250;-65
2024/02/02 11:05:11;;;;;;;5.72;2.55;;;;;;;11.34;68.28;98055.19;2041768;28;20235;-65
2024/02/02 11:06:40;;;;;;;4.88;1.50;;;;;;;11.71;66.19;98049.03;2046982;28;20562;-65
2024/02/02 11:07:48;;;;;;;3.63;1.50;;;;;;;11.63;65.18;98057.06;2054445;28;20567;-65
2024/02/02 11:09:08;;;;;;;2.85;1.50;;;;;;;11.87;64.55;98052.06;2056506;28;20203;-65
2024/02/02 11:10:15;;;;;;;4.53;2.08;;;;;;;12.20;64.29;98045.06;2064104;28;20228;-65
2024/02/02 11:11:23;;;;;;;4.85;2.15;;;;;;;11.91;64.74;98049.31;2064218;28;20230;-65
2024/02/02 11:13:09;;;;;;;5.40;2.00;;;;;;;11.43;64.37;98047.13;2063594;28;20191;-65
2024/02/02 11:14:19;;;;;;;3.20;1.55;;;;;;;11.15;66.40;98053.06;2059925;28;20209;-65
2024/02/02 11:16:05;;;;;;;2.90;1.23;;;;;;;11.36;64.68;98051.63;2064666;28;20759;-65
2024/02/02 11:17:21;;;;;;;7.70;1.38;;;;;;;11.57;64.52;98058.09;2058107;28;20206;-65
2024/02/02 11:18:36;;;;;;;2.00;1.10;;;;;;;11.48;64.50;98054.84;2064395;28;20198;-65
2024/02/02 11:19:59;;;;;;;4.50;1.77;;;;;;;11.31;65.29;98053.50;2063553;28;20234;-65
2024/02/02 11:21:32;;;;;;;3.45;1.60;;;;;;;11.42;65.38;98059.34;2063955;28;20630;-64
2024/02/02 11:22:43;;;;;;;3.15;1.90;;;;;;;11.74;64.75;98064.63;2064183;28;20296;-65
2024/02/02 11:23:54;;;;;;;10.57;6.38;;;;;;;11.91;65.04;98057.19;2066020;28;20238;-65
2024/02/02 11:25:06;;;;;;;4.43;2.50;;;;;;;11.74;64.29;98056.78;2061995;28;20223;-65
2024/02/02 11:26:15;;;;;;;2.95;2.03;;;;;;;11.57;64.29;98052.84;2063852;28;20807;-65
2024/02/02 11:27:24;;;;;;;3.03;1.50;;;;;;;11.88;64.45;98053.78;2064062;28;20754;-65
2024/02/02 11:29:05;;;;;;;2.50;1.33;;;;;;;11.55;65.07;98053.78;2080569;28;20206;-65
2024/02/02 11:30:19;;;;;;;5.43;2.05;;;;;;;11.21;66.11;98052.03;2067750;28;20696;-65
2024/02/02 11:31:25;;;;;;;17.60;8.38;;;;;;;11.61;65.77;98048.41;2081284;28;20198;-65
2024/02/02 11:32:54;;;;;;;13.35;6.68;;;;;;;11.24;63.74;98047.59;2080992;28;20206;-65
2024/02/02 11:34:18;;;;;;;2.88;1.58;;;;;;;11.22;65.79;98035.44;2089399;28;20562;-65
2024/02/02 11:35:57;;;;;;;3.35;1.70;;;;;;;11.25;65.13;98038.00;2080174;28;20223;-65
2024/02/02 11:37:14;;;;;;;1.90;1.42;;;;;;;11.31;64.66;98024.75;2075742;28;20241;-64
2024/02/02 11:38:41;;;;;;;4.10;1.80;;;;;;;11.63;62.42;98024.81;2076249;28;20193;-64
2024/02/02 11:39:42;;;;;;;3.17;1.10;;;;;;;11.50;62.82;98034.75;2077755;28;20229;-65
2024/02/02 11:40:45;;;;;;;2.88;1.48;;;;;;;11.43;63.15;98034.91;2077460;28;20224;-65
2024/02/02 11:41:47;;;;;;;3.85;1.10;;;;;;;11.79;62.71;98031.34;2075171;28;20619;-65
2024/02/02 11:42:53;;;;;;;3.28;1.27;;;;;;;11.92;61.87;98029.22;2074503;28;20210;-65
2024/02/02 11:43:56;;;;;;;5.30;1.20;;;;;;;11.91;61.75;98019.69;2077574;28;20221;-65
2024/02/02 11:44:59;;;;;;;3.90;1.35;;;;;;;11.73;62.11;98031.50;2065338;28;20343;-65
2024/02/02 11:46:01;;;;;;;1.75;0.95;;;;;;;11.46;63.03;98031.34;2076423;28;20197;-65
2024/02/02 11:47:10;;;;;;;3.05;1.20;;;;;;;11.69;63.51;98024.66;2074609;28;20268;-64
2024/02/02 11:48:31;;;;;;;2.35;1.30;;;;;;;11.93;62.67;98025.72;2076022;28;20204;-65
2024/02/02 11:49:37;;;;;;;2.20;1.17;;;;;;;11.62;62.70;98030.94;2065401;28;20273;-64
2024/02/02 11:50:43;;;;;;;2.55;1.00;;;;;;;11.83;63.16;98024.25;2074580;28;20215;-64
2024/02/02 11:51:54;;;;;;;2.00;1.00;;;;;;;11.50;63.10;98019.91;2076200;28;20199;-64
2024/02/02 11:53:08;;;;;;;3.92;1.42;;;;;;;11.26;63.27;98013.56;2076096;28;20555;-64
2024/02/02 11:54:20;;;;;;;1.92;1.23;;;;;;;11.26;63.88;98008.31;2074934;28;20198;-65
2024/02/02 11:55:28;;;;;;;3.47;1.15;;;;;;;11.15;63.63;97999.88;2076058;28;20210;-64
2024/02/02 11:56:33;;;;;;;2.92;1.50;;;;;;;11.20;64.27;98017.19;2075117;28;20201;-65
2024/02/02 11:57:43;;;;;;;2.85;1.40;;;;;;;11.18;64.86;98021.59;2073790;28;20201;-64
2024/02/02 11:58:49;;;;;;;3.15;1.17;;;;;;;11.08;63.99;98005.31;2075390;28;20215;-64
2024/02/02 11:59:52;;;;;;;2.45;1.30;;;;;;;11.09;63.87;98016.59;2078768;28;20279;-65
2024/02/02 12:01:11;;;;;;;1.85;1.10;;;;;;;11.35;64.34;98015.94;2075777;28;20818;-64
2024/02/02 12:02:34;;;;;;;1.90;1.20;;;;;;;11.51;63.79;98016.38;2075776;28;20203;-65
2024/02/02 12:03:54;;;;;;;2.03;1.08;;;;;;;11.59;63.14;98008.31;2082681;28;20300;-64
2024/02/02 12:05:16;;;;;;;4.75;1.23;;;;;;;11.77;62.99;98014.84;2077689;28;20740;-65
2024/02/02 12:06:19;;;;;;;1.80;0.85;;;;;;;11.62;63.02;97996.91;2075477;28;20241;-64
2024/02/02 12:07:20;;;;;;;5.85;1.25;;;;;;;11.86;63.09;98006.72;2082415;28;20212;-64
2024/02/02 12:08:48;;;;;;;2.03;1.02;;;;;;;12.00;62.44;98003.75;2082299;28;20280;-65
2024/02/02 12:09:57;;;;;;;1.90;1.00;;;;;;;11.61;61.50;97993.47;2075705;28;20790;-64
2024/02/02 12:10:59;;;;;;;3.92;1.40;;;;;;;11.57;62.46;97987.44;2072541;28;20198;-65
2024/02/02 12:12:05;;;;;;;1.90;1.10;;;;;;;11.42;62.52;98000.94;2076008;28;20263;-64
2024/02/02 12:13:12;;;;;;;2.03;1.00;;;;;;;11.80;62.44;97999.03;2075515;28;20199;-64
2024/02/02 12:14:42;;;;;;;2.80;1.27;;;;;;;11.77;62.23;97986.91;2060599;28;20651;-65
2024/02/02 12:15:43;;;;;;;2.47;1.30;;;;;;;12.14;62.07;97987.63;2077822;28;20229;-65
2024/02/02 12:16:47;;;;;;;5.40;1.30;;;;;;;12.12;61.43;97991.19;2074400;28;20379;-65
2024/02/02 12:17:49;;;;;;;2.25;1.15;;;;;;;12.34;60.81;97986.16;2074022;28;20581;-65
2024/02/02 12:18:51;;;;;;;2.55;1.20;;;;;;;11.79;59.84;97975.53;2072160;28;20257;-65
2024/02/02 12:19:53;;;;;;;2.97;1.13;;;;;;;11.91;59.70;97983.03;2071584;28;20239;-65
2024/02/02 12:20:55;;;;;;;1.83;0.90;;;;;;;12.20;59.12;97965.63;2072251;28;20717;-65
2024/02/02 12:21:56;;;;;;;4.30;1.40;;;;;;;12.28;58.81;97970.63;2073216;28;20659;-65
2024/02/02 12:22:58;;;;;;;1.63;1.00;;;;;;;12.36;57.05;97966.88;2074108;28;20205;-65
2024/02/02 12:24:00;;;;;;;2.58;1.25;;;;;;;12.57;57.62;97975.84;2075985;28;20199;-65
2024/02/02 12:25:09;;;;;;;1.83;1.00;;;;;;;12.47;57.38;97956.06;2073996;28;20316;-65
2024/02/02 12:26:11;;;;;;;2.85;0.90;;;;;;;12.39;56.77;97966.78;2075558;28;20602;-65
2024/02/02 12:27:14;;;;;;;6.93;1.05;;;;;;;12.50;56.51;97961.22;2075916;28;20207;-65
2024/02/02 12:28:15;;;;;;;7.32;1.13;;;;;;;12.33;56.00;97959.13;2076267;28;20234;-65
2024/02/02 12:29:17;;;;;;;2.03;1.10;;;;;;;12.18;56.11;97947.34;2071445;28;20208;-65
2024/02/02 12:30:19;;;;;;;2.33;1.00;;;;;;;12.01;55.88;97944.38;2072388;28;20205;-65
2024/02/02 12:31:20;;;;;;;2.55;0.98;;;;;;;12.09;57.19;97948.47;2072210;28;20208;-65
2024/02/02 12:32:22;;;;;;;2.30;1.15;;;;;;;12.13;56.32;97953.66;2073221;28;20209;-65
2024/02/02 12:33:23;;;;;;;1.20;0.70;;;;;;;12.14;56.19;97943.13;2075978;28;20204;-64
2024/02/02 12:34:25;;;;;;;3.95;0.82;;;;;;;11.92;56.42;97940.25;2074971;28;20231;-65
2024/02/02 12:35:27;;;;;;;1.33;0.80;;;;;;;11.95;56.69;97948.03;2076188;28;20247;-65
2024/02/02 12:36:28;;;;;;;1.60;0.90;;;;;;;12.05;55.05;97948.66;2075807;28;20199;-65
2024/02/02 12:37:31;;;;;;;2.38;0.90;;;;;;;11.87;55.29;97944.75;2076584;28;20200;-65
2024/02/02 12:38:33;;;;;;;2.42;0.85;;;;;;;11.87;54.54;97947.38;2076207;28;20872;-65
2024/02/02 12:39:37;;;;;;;2.25;1.17;;;;;;;12.07;54.51;97949.44;2075557;28;20224;-65
2024/02/02 12:40:40;;;;;;;1.50;0.80;;;;;;;12.01;54.34;97944.38;2075751;28;20197;-65
2024/02/02 12:41:42;;;;;;;1.90;1.05;;;;;;;11.83;54.26;97946.59;2076341;28;20208;-65
2024/02/02 12:42:43;;;;;;;2.55;0.73;;;;;;;11.76;53.63;97947.69;2075016;28;20202;-65
2024/02/02 12:43:46;;;;;;;2.33;1.00;;;;;;;12.09;53.33;97952.88;2077258;28;20269;-65
2024/02/02 12:44:51;;;;;;;1.88;0.80;;;;;;;11.97;52.22;97956.69;2075488;28;20289;-65
2024/02/02 12:45:53;;;;;;;1.67;0.80;;;;;;;11.96;52.97;97952.38;2074431;28;20200;-64
2024/02/02 12:46:55;;;;;;;1.73;0.90;;;;;;;11.89;52.87;97950.81;2073370;28;20319;-64
2024/02/02 12:47:58;;;;;;;1.60;1.10;;;;;;;12.16;52.52;97945.69;2074205;28;20197;-65
2024/02/02 12:49:00;;;;;;;1.83;0.90;;;;;;;12.01;51.64;97942.63;2078008;28;20652;-65
2024/02/02 12:50:02;;;;;;;2.05;1.02;;;;;;;11.74;50.75;97936.41;2077371;28;20965;-66
2024/02/02 12:51:05;;;;;;;2.60;1.40;;;;;;;11.87;51.62;97948.25;2075661;28;20198;-64
2024/02/02 12:52:07;;;;;;;2.72;0.90;;;;;;;11.84;51.07;97956.16;2079641;28;20204;-65
2024/02/02 12:53:10;;;;;;;1.67;0.93;;;;;;;11.62;50.93;97915.81;2076813;28;20251;-65
2024/02/02 12:54:11;;;;;;;4.70;1.40;;;;;;;12.00;51.36;97951.38;2073939;28;20227;-65
2024/02/02 12:55:13;;;;;;;2.60;1.08;;;;;;;11.88;51.10;97949.97;2074500;28;20196;-65
2024/02/02 12:56:17;;;;;;;1.58;0.75;;;;;;;11.67;51.14;97945.31;2072046;28;20200;-65
2024/02/02 12:57:18;;;;;;;1.92;0.70;;;;;;;11.64;50.29;97951.50;2073462;28;20212;-65
2024/02/02 12:58:21;;;;;;;1.50;0.70;;;;;;;11.58;49.75;97939.47;2075690;28;20313;-65
2024/02/02 12:59:23;;;;;;;1.70;0.80;;;;;;;11.69;49.71;97951.38;2075261;28;20271;-65
2024/02/02 13:00:25;;;;;;;2.22;0.93;;;;;;;11.56;50.72;97948.25;2073961;28;20208;-64
2024/02/02 13:01:29;;;;;;;1.65;0.70;;;;;;;11.50;50.78;97933.56;2073156;28;20665;-65
2024/02/02 13:02:31;;;;;;;4.30;0.88;;;;;;;11.62;50.21;97953.31;2075610;28;20783;-65
2024/02/02 13:03:33;;;;;;;1.73;0.90;;;;;;;11.55;49.92;97950.03;2071792;28;20202;-64
2024/02/02 13:04:50;;;;;;;1.20;0.60;;;;;;;11.70;50.17;97951.31;2074490;28;20580;-65
2024/02/02 13:05:52;;;;;;;1.20;0.80;;;;;;;11.84;50.53;97942.25;2075667;28;20258;-65
2024/02/02 13:06:54;;;;;;;1.20;0.70;;;;;;;11.60;49.84;97942.91;2075233;28;20202;-67
2024/02/02 13:07:56;;;;;;;12.40;6.75;;;;;;;11.44;49.60;97944.22;2075322;28;20284;-67
2024/02/02 13:09:31;;;;;;;6.45;2.45;;;;;;;11.37;50.29;97950.53;2076130;28;20232;-68
2024/02/02 13:10:39;;;;;;;18.33;10.05;;;;;;;11.30;51.03;97941.13;2074411;28;20273;-69
2024/02/02 13:11:43;;;;;;;4.18;1.65;;;;;;;11.10;50.55;97940.75;2075472;28;20208;-69
2024/02/02 13:12:46;;;;;;;3.15;1.17;;;;;;;11.02;49.90;97953.16;2076071;28;20208;-69
2024/02/02 13:13:48;;;;;;;2.22;0.70;;;;;;;11.03;50.17;97939.19;2076274;28;20210;-69
2024/02/02 13:14:49;;;;;;;1.58;0.60;;;;;;;11.33;51.15;97952.34;2071443;28;20558;-69
2024/02/02 13:15:52;;;;;;;3.20;0.68;;;;;;;11.39;50.50;97931.28;2074789;28;20553;-70
2024/02/02 13:17:15;;;;;;;2.05;0.93;;;;;;;11.47;49.91;97944.13;2075144;28;20219;-69
2024/02/02 13:18:21;;;;;;;1.40;0.60;;;;;;;11.54;49.68;97947.44;2074140;28;20204;-69
2024/02/02 13:19:33;;;;;;;1.50;0.70;;;;;;;11.70;50.70;97935.63;2071998;28;20639;-69
2024/02/02 13:20:36;;;;;;;1.63;0.82;;;;;;;11.51;47.86;97940.53;2073250;28;20581;-69
2024/02/02 13:21:39;;;;;;;1.60;0.60;;;;;;;11.63;48.51;97941.97;2074241;28;20818;-69
2024/02/02 13:22:50;;;;;;;1.85;0.60;;;;;;;11.75;49.63;97946.81;2074711;28;20232;-69
2024/02/02 13:23:56;;;;;;;2.30;0.75;;;;;;;11.75;49.15;97940.75;2071527;28;20367;-62
2024/02/02 13:24:58;;;;;;;1.33;0.60;;;;;;;11.63;49.30;97936.72;2072635;28;20283;-62
2024/02/02 13:26:00;;;;;;;1.40;0.68;;;;;;;11.71;48.21;97937.34;2074002;28;20244;-62
2024/02/02 13:27:03;;;;;;;1.10;0.50;;;;;;;11.64;48.58;97934.97;2074529;28;20205;-62
2024/02/02 13:28:12;;;;;;;1.20;0.60;;;;;;;11.69;48.15;97935.69;2075226;28;20278;-61
2024/02/02 13:29:25;;;;;;;2.42;0.82;;;;;;;11.56;47.64;97940.41;2074825;28;20841;-62
2024/02/02 13:30:26;;;;;;;1.33;0.70;;;;;;;11.22;47.39;97928.25;2075627;28;20193;-62
2024/02/02 13:31:31;;;;;;;1.30;0.60;;;;;;;11.16;47.78;97929.28;2076442;28;20307;-62
2024/02/02 13:32:38;;;;;;;1.20;0.60;;;;;;;11.07;47.41;97929.50;2076818;28;20240;-62
2024/02/02 13:33:41;;;;;;;1.10;0.50;;;;;;;10.88;47.05;97934.34;2075780;28;20252;-62
2024/02/02 13:34:48;;;;;;;1.10;0.60;;;;;;;10.68;45.73;97922.66;2075583;28;20221;-62
2024/02/02 13:35:53;;;;;;;1.40;0.70;;;;;;;10.78;45.61;97931.13;2074447;28;20199;-62
2024/02/02 13:37:02;;;;;;;3.97;1.42;;;;;;;10.71;46.26;97929.56;2075607;28;20683;-61
2024/02/02 13:38:04;;;;;;;2.38;0.70;;;;;;;10.62;46.50;97928.03;2074237;28;20191;-61
2024/02/02 13:39:06;;;;;;;1.20;0.60;;;;;;;10.68;47.20;97925.28;2075001;28;20245;-61
2024/02/02 13:40:15;;;;;;;4.07;0.65;;;;;;;10.81;47.93;97927.59;2079164;28;20231;-62
2024/02/02 13:41:19;;;;;;;1.38;0.60;;;;;;;10.79;46.98;97914.53;2081605;28;20199;-61
2024/02/02 13:42:22;;;;;;;6.25;0.90;;;;;;;10.98;47.41;97924.53;2075259;28;20610;-62
2024/02/02 13:43:25;;;;;;;2.65;0.70;;;;;;;10.88;47.67;97905.59;2076683;28;20229;-62
2024/02/02 13:44:27;;;;;;;1.50;0.70;;;;;;;10.82;46.04;97914.47;2076026;28;20224;-62
2024/02/02 13:45:30;;;;;;;3.15;0.68;;;;;;;10.68;45.56;97917.44;2075267;28;20253;-61
2024/02/02 13:46:32;;;;;;;1.30;0.60;;;;;;;10.64;45.93;97907.09;2076204;28;20348;-62
2024/02/02 13:47:35;;;;;;;1.38;0.70;;;;;;;10.67;46.32;97907.88;2076454;28;20195;-61
2024/02/02 13:48:39;;;;;;;1.30;0.60;;;;;;;10.69;46.60;97910.44;2076682;28;20294;-61
2024/02/02 13:49:45;;;;;;;4.20;0.80;;;;;;;10.76;46.60;97901.56;2072757;28;20301;-61
2024/02/02 13:50:59;;;;;;;1.00;0.50;;;;;;;10.77;44.53;97900.66;2074040;28;20233;-61
2024/02/02 13:52:05;;;;;;;2.05;0.70;;;;;;;10.81;46.44;97897.06;2075148;28;20196;-61
2024/02/02 13:53:08;;;;;;;1.45;0.65;;;;;;;11.11;46.84;97894.56;2074987;28;20223;-62
2024/02/02 13:54:11;;;;;;;1.77;0.85;;;;;;;11.18;46.81;97895.25;2075026;28;20281;-61
2024/02/02 13:55:15;;;;;;;1.75;0.70;;;;;;;11.32;46.61;97898.34;2075880;28;20290;-62
2024/02/02 13:56:21;;;;;;;8.23;4.05;;;;;;;11.36;47.34;97886.03;2076645;28;20218;-64
2024/02/02 13:57:22;;;;;;;15.82;8.30;;;;;;;11.63;47.63;97888.75;2074402;28;20208;-62
2024/02/02 13:58:24;;;;;;;8.00;3.30;;;;;;;11.72;46.77;97871.03;2071151;28;20204;-62
2024/02/02 13:59:25;;;;;;;11.82;4.25;;;;;;;11.60;46.91;97882.72;2070714;28;20203;-64
2024/02/02 14:00:31;;;;;;;2.95;1.33;;;;;;;11.70;47.47;97879.84;2074592;28;20201;-68
2024/02/02 14:01:33;;;;;;;3.17;1.15;;;;;;;11.48;47.61;97882.19;2074681;28;20228;-68
2024/02/02 14:02:35;;;;;;;1.98;0.90;;;;;;;11.33;45.42;97879.13;2074934;28;20199;-68
2024/02/02 14:03:36;;;;;;;1.67;0.85;;;;;;;11.28;46.11;97875.78;2075432;28;20317;-67
2024/02/02 14:04:38;;;;;;;2.30;0.98;;;;;;;11.12;45.44;97864.88;2075234;28;20225;-68
2024/02/02 14:05:41;;;;;;;2.35;0.88;;;;;;;11.23;45.50;97869.84;2078681;28;20218;-60
2024/02/02 14:06:42;;;;;;;2.35;0.85;;;;;;;11.22;46.08;97870.72;2075149;28;20214;-60
2024/02/02 14:07:54;;;;;;;2.03;0.90;;;;;;;11.10;45.88;97872.78;2074536;28;20203;-60
2024/02/02 14:08:55;;;;;;;1.52;0.82;;;;;;;11.15;46.20;97870.06;2075607;28;20206;-61
2024/02/02 14:10:04;;;;;;;2.55;0.80;;;;;;;11.04;44.12;97864.25;2073692;28;20226;-61
2024/02/02 14:11:06;;;;;;;1.40;0.80;;;;;;;11.06;44.77;97858.09;2073815;28;20721;-61
2024/02/02 14:12:08;;;;;;;1.70;0.80;;;;;;;11.03;45.29;97866.00;2073859;28;20763;-61
2024/02/02 14:13:18;;;;;;;1.35;0.70;;;;;;;11.05;44.87;97874.66;2073677;28;20197;-61
2024/02/02 14:14:27;;;;;;;1.20;0.68;;;;;;;11.06;44.65;97859.84;2073561;28;20200;-61
2024/02/02 14:15:28;;;;;;;1.75;0.70;;;;;;;11.28;44.60;97870.56;2075184;28;20204;-61
2024/02/02 14:16:31;;;;;;;4.00;0.80;;;;;;;11.81;44.49;97866.41;2073679;28;20203;-61
2024/02/02 14:17:33;;;;;;;1.55;0.80;;;;;;;12.08;44.22;97857.75;2074810;28;20200;-61
2024/02/02 14:18:35;;;;;;;1.10;0.65;;;;;;;12.21;43.47;97876.56;2075170;28;20227;-69
2024/02/02 14:19:40;;;;;;;10.27;1.10;;;;;;;12.06;44.26;97870.03;2074292;28;20314;-68
2024/02/02 14:20:42;;;;;;;1.30;0.60;;;;;;;12.01;44.35;97864.09;2074004;28;20246;-68
2024/02/02 14:21:44;;;;;;;1.73;0.70;;;;;;;11.82;44.56;97863.78;2075297;28;20212;-69
2024/02/02 14:22:45;;;;;;;1.13;0.60;;;;;;;11.79;44.58;97869.09;2074336;28;20468;-69
2024/02/02 14:23:47;;;;;;;2.05;0.80;;;;;;;11.75;44.47;97868.31;2075529;28;20856;-68
2024/02/02 14:24:51;;;;;;;1.70;0.80;;;;;;;11.72;44.49;97859.72;2070345;28;20953;-68
2024/02/02 14:25:53;;;;;;;1.50;0.75;;;;;;;11.68;44.69;97858.09;2071752;28;20206;-69
2024/02/02 14:26:56;;;;;;;2.20;0.90;;;;;;;11.68;44.44;97861.56;2076334;28;20227;-68
2024/02/02 14:27:58;;;;;;;3.00;0.85;;;;;;;11.40;44.95;97858.88;2074857;28;20208;-68
2024/02/02 14:29:00;;;;;;;1.88;0.70;;;;;;;11.28;44.75;97862.72;2071472;28;20599;-69
2024/02/02 14:30:04;;;;;;;5.85;0.63;;;;;;;11.26;44.11;97846.19;2072138;28;20215;-68
2024/02/02 14:31:06;;;;;;;1.00;0.60;;;;;;;11.24;44.45;97859.31;2073728;28;20204;-68
2024/02/02 14:32:08;;;;;;;1.35;0.70;;;;;;;11.41;45.14;97855.38;2075321;28;20255;-69
2024/02/02 14:33:13;;;;;;;2.13;0.85;;;;;;;11.47;45.28;97849.97;2073798;28;20795;-69
2024/02/02 14:34:26;;;;;;;2.75;0.70;;;;;;;11.51;44.70;97854.19;2074546;28;20217;-61
2024/02/02 14:35:28;;;;;;;1.45;0.70;;;;;;;11.50;44.05;97855.09;2073605;28;20192;-61
2024/02/02 14:36:30;;;;;;;1.75;0.70;;;;;;;11.43;44.07;97843.97;2074650;28;20200;-61
2024/02/02 14:37:32;;;;;;;1.23;0.60;;;;;;;11.62;44.16;97848.66;2071138;28;20285;-61
2024/02/02 14:38:34;;;;;;;1.98;0.77;;;;;;;11.59;43.47;97849.63;2073095;28;20250;-61
2024/02/02 14:39:35;;;;;;;1.45;0.70;;;;;;;11.59;43.58;97846.13;2074445;28;20231;-68
2024/02/02 14:40:37;;;;;;;1.00;0.50;;;;;;;11.62;43.72;97853.03;2075050;28;20239;-68
2024/02/02 14:41:39;;;;;;;1.25;0.70;;;;;;;11.50;43.97;97847.25;2074080;28;20199;-68
2024/02/02 14:42:41;;;;;;;1.33;0.70;;;;;;;11.38;43.94;97837.16;2076105;28;20280;-69
2024/02/02 14:43:43;;;;;;;3.08;1.00;;;;;;;11.46;44.49;97856.09;2082730;28;20201;-68
2024/02/02 14:44:44;;;;;;;1.75;0.80;;;;;;;11.48;44.80;97846.47;2074696;28;20304;-68
2024/02/02 14:45:46;;;;;;;1.50;0.80;;;;;;;11.33;45.06;97846.91;2074890;28;20212;-68
2024/02/02 14:46:49;;;;;;;1.65;0.80;;;;;;;11.31;45.26;97846.09;2073635;28;20708;-68
2024/02/02 14:47:50;;;;;;;1.63;0.80;;;;;;;11.28;44.81;97849.66;2075218;28;20200;-68
2024/02/02 14:48:52;;;;;;;1.88;0.73;;;;;;;11.37;44.17;97840.69;2071296;28;20211;-68
2024/02/02 14:49:53;;;;;;;3.00;0.73;;;;;;;11.42;43.86;97850.09;2071202;28;20277;-68
2024/02/02 14:50:55;;;;;;;1.42;0.70;;;;;;;11.46;43.38;97853.47;2075655;28;20210;-69
2024/02/02 14:51:57;;;;;;;1.40;0.70;;;;;;;11.40;43.78;97849.31;2071338;28;20730;-68
2024/02/02 14:52:58;;;;;;;1.50;0.73;;;;;;;11.35;43.22;97851.19;2071620;28;20259;-69
2024/02/02 14:54:00;;;;;;;1.73;0.90;;;;;;;11.46;43.57;97853.47;2073783;28;20195;-69
2024/02/02 14:55:01;;;;;;;2.85;1.00;;;;;;;11.51;44.08;97851.59;2070628;28;20771;-69
2024/02/02 14:56:05;;;;;;;1.55;0.80;;;;;;;11.52;44.27;97863.78;2072789;28;20198;-68
2024/02/02 14:57:07;;;;;;;1.75;0.70;;;;;;;11.43;44.19;97861.44;2075398;28;20195;-70
2024/02/02 14:58:09;;;;;;;1.50;0.80;;;;;;;11.47;44.76;97859.59;2074672;28;20205;-69
2024/02/02 14:59:12;;;;;;;3.67;0.80;;;;;;;11.46;44.46;97848.25;2070436;28;20204;-68
2024/02/02 15:00:21;;;;;;;1.40;0.80;;;;;;;11.65;44.89;97861.66;2071324;28;20226;-69
2024/02/02 15:01:27;;;;;;;1.20;0.63;;;;;;;11.70;45.21;97862.38;2078841;28;20216;-69
2024/02/02 15:02:29;;;;;;;3.38;0.90;;;;;;;11.50;45.22;97852.47;2070762;28;20201;-69
2024/02/02 15:03:31;;;;;;;2.20;1.00;;;;;;;11.57;46.10;97855.81;2073603;28;20201;-69
2024/02/02 15:04:32;;;;;;;2.78;1.00;;;;;;;11.33;47.59;97858.22;2075730;28;20700;-69
2024/02/02 15:05:34;;;;;;;4.55;0.80;;;;;;;11.14;48.88;97872.72;2073800;28;20201;-69
2024/02/02 15:06:36;;;;;;;8.57;1.00;;;;;;;11.11;49.46;97869.28;2074338;28;20657;-68
2024/02/02 15:07:39;;;;;;;2.30;0.90;;;;;;;11.06;49.89;97865.94;2073966;28;20305;-68
2024/02/02 15:08:40;;;;;;;2.13;1.30;;;;;;;10.94;50.96;97861.91;2071226;28;20198;-68
2024/02/02 15:09:42;;;;;;;8.98;1.10;;;;;;;10.96;51.55;97859.25;2070833;28;20261;-68
2024/02/02 15:10:45;;;;;;;2.42;1.23;;;;;;;10.86;51.28;97853.38;2077495;28;20211;-68
2024/02/02 15:11:47;;;;;;;2.83;1.05;;;;;;;10.91;49.17;97872.41;2074406;28;20697;-69
2024/02/02 15:12:49;;;;;;;2.00;0.88;;;;;;;10.81;48.00;97870.94;2073936;28;20208;-69
2024/02/02 15:13:50;;;;;;;1.50;0.90;;;;;;;10.76;48.66;97872.81;2074375;28;20193;-69
2024/02/02 15:14:52;;;;;;;3.05;1.30;;;;;;;10.71;50.16;97869.47;2077943;28;20689;-68
2024/02/02 15:15:54;;;;;;;2.13;1.30;;;;;;;10.74;50.40;97866.78;2076787;28;20230;-69
2024/02/02 15:16:55;;;;;;;2.25;1.00;;;;;;;10.64;50.03;97862.69;2077483;28;20292;-69
2024/02/02 15:17:57;;;;;;;1.80;1.00;;;;;;;10.55;51.16;97858.53;2076294;28;20674;-68
2024/02/02 15:18:59;;;;;;;2.20;1.13;;;;;;;10.49;49.62;97856.97;2075920;28;20197;-69
2024/02/02 15:20:05;;;;;;;5.97;1.00;;;;;;;10.43;51.04;97850.13;2074717;28;20245;-69
2024/02/02 15:21:07;;;;;;;3.67;1.45;;;;;;;10.49;50.02;97859.56;2076332;28;20277;-68
2024/02/02 15:22:09;;;;;;;2.20;1.00;;;;;;;10.56;49.98;97855.03;2077425;28;20250;-68
2024/02/02 15:23:11;;;;;;;5.00;1.58;;;;;;;10.64;49.06;97857.47;2076365;28;20235;-69
2024/02/02 15:24:13;;;;;;;1.75;1.05;;;;;;;10.68;49.09;97856.47;2076181;28;20197;-68
2024/02/02 15:25:14;;;;;;;1.95;0.90;;;;;;;10.56;47.64;97831.53;2074998;28;20232;-61
2024/02/02 15:26:16;;;;;;;4.18;1.08;;;;;;;10.66;47.68;97850.44;2080075;28;20306;-62
2024/02/02 15:27:19;;;;;;;2.40;0.90;;;;;;;10.48;46.19;97857.84;2080219;28;20203;-61
2024/02/02 15:28:21;;;;;;;1.85;0.90;;;;;;;10.47;45.95;97855.28;2074257;28;20251;-61
2024/02/02 15:29:23;;;;;;;2.78;1.00;;;;;;;10.37;46.66;97859.88;2076683;28;20286;-62
2024/02/02 15:30:25;;;;;;;1.88;1.10;;;;;;;10.09;46.34;97831.78;2077269;28;20650;-61
2024/02/02 15:31:27;;;;;;;3.00;1.30;;;;;;;10.16;47.03;97859.47;2075714;28;20208;-61
2024/02/02 15:32:28;;;;;;;3.65;1.70;;;;;;;9.96;49.12;97832.06;2075409;28;20981;-61
2024/02/02 15:33:31;;;;;;;2.60;1.25;;;;;;;10.06;48.38;97857.97;2076373;28;20196;-61
2024/02/02 15:34:32;;;;;;;6.10;1.70;;;;;;;9.96;48.36;97849.47;2075780;28;20263;-61
2024/02/02 15:35:34;;;;;;;4.88;1.98;;;;;;;9.87;49.27;97834.06;2077029;28;20345;-61
2024/02/02 15:36:36;;;;;;;6.50;2.08;;;;;;;9.94;51.10;97854.75;2076958;28;20197;-62
2024/02/02 15:37:38;;;;;;;6.97;2.13;;;;;;;10.05;51.51;97864.06;2076693;28;20287;-61
2024/02/02 15:38:41;;;;;;;4.32;1.88;;;;;;;10.15;52.20;97859.50;2075848;28;20659;-61
2024/02/02 15:40:05;;;;;;;3.67;1.80;;;;;;;10.18;52.58;97865.50;2075101;28;20215;-61
2024/02/02 15:41:09;;;;;;;4.30;1.67;;;;;;;10.11;53.18;97870.00;2074461;28;20197;-61
2024/02/02 15:42:11;;;;;;;15.48;2.20;;;;;;;10.11;53.81;97869.16;2074520;28;20296;-61